Latest Weather Observations for Cloncurry

IDQ60801

Issued at 11:02 am EST Monday 25 May 2015 (issued every 30 minutes, with the page automatically refreshed every 10 minutes)

About weather observations | Map of weather stations | Latest weather observations for QLD | Other Formats
Station Details ID: 029141 Name: CLONCURRY AIRPORT Lat: -20.67 Lon: 140.50 Height: 186.0 m
Data from the previous 72 hours. | See also: Recent months at Cloncurry
Date/Time
EST
Temp
°C
App
Temp
°C
Dew
Point
Rel
Hum
%
Delta-T
°C
Wind Press
QNH
hPa
Press
MSL
hPa
Rain
since 9 am
mm
Dir
 
Spd
km/h
Gust
km/h
Spd
kts
Gust
kts
25/11:00am 25.3 23.0 14.1 50 6.7 ENE 19 28 10 15 1021.6 1020.9 0.0
25/10:30am 24.8 22.8 14.0 51 6.4 ENE 17 24 9 13 1022.1 1021.4 0.0
25/10:00am 24.1 21.6 14.2 54 5.9 E 20 24 11 13 1022.2 1021.5 0.0
25/09:00am 21.1 18.3 13.3 61 4.5 E 20 24 11 13 1022.0 1021.3 0.0
25/08:30am 20.3 18.1 13.3 64 4.0 ESE 17 24 9 13 1022.0 1021.3 0.0
25/08:00am 19.1 17.1 12.8 67 3.6 ESE 15 20 8 11 1021.7 1021.0 0.0
25/07:30am 17.7 16.4 12.4 71 3.0 ESE 11 13 6 7 1021.3 1020.6 0.0
25/07:00am 17.4 16.0 12.1 71 2.9 SE 11 13 6 7 1021.0 1020.3 0.0
25/06:30am 17.8 16.1 12.5 71 3.0 ESE 13 17 7 9 1020.5 1019.8 0.0
25/06:00am 17.8 16.4 12.3 70 3.1 SE 11 15 6 8 1020.3 1019.5 0.0
25/05:30am 18.0 16.5 12.0 68 3.3 SE 11 15 6 8 1020.0 1019.2 0.0
25/05:00am 18.5 16.8 12.3 67 3.5 SE 13 15 7 8 1019.8 1019.0 0.0
25/04:30am 18.7 16.9 12.0 65 3.7 SE 13 15 7 8 1019.6 1018.8 0.0
25/04:00am 18.8 16.8 11.6 63 4.0 SE 13 15 7 8 1019.6 1018.8 0.0
25/03:30am 19.0 17.0 11.6 62 4.1 SE 13 17 7 9 1019.6 1018.8 0.0
25/03:00am 19.1 17.0 11.2 60 4.3 SE 13 17 7 9 1019.7 1018.9 0.0
25/02:30am 19.4 16.7 10.4 56 4.9 SE 15 20 8 11 1019.8 1019.0 0.0
25/02:00am 19.6 16.3 9.5 52 5.4 SE 17 20 9 11 1019.9 1019.1 0.0
25/01:30am 19.6 16.1 8.6 49 5.8 SE 17 20 9 11 1019.8 1019.0 0.0
25/01:00am 19.7 15.5 7.4 45 6.3 ESE 19 20 10 11 1019.7 1018.9 0.0
25/12:30am 18.7 15.8 6.5 45 6.1 SE 11 17 6 9 1020.0 1019.2 0.0
25/12:00am 15.6 11.2 0.2 35 6.6 S 13 13 7 7 1020.2 1019.4 0.0
 
Date/Time
EST
Temp
°C
App
Temp
°C
Dew
Point
Rel
Hum
%
Delta-T
°C
Wind Press
QNH
hPa
Press
MSL
hPa
Rain
since 9 am
mm
Dir
 
Spd
km/h
Gust
km/h
Spd
kts
Gust
kts
24/11:30pm 16.3 11.9 0.4 34 6.9 S 13 15 7 8 1020.4 1019.7 0.0
24/11:00pm 16.4 12.5 1.3 36 6.7 SSW 11 13 6 7 1020.3 1019.5 0.0
24/10:30pm 15.7 12.4 2.5 41 6.0 SSW 9 11 5 6 1020.3 1019.5 0.0
24/10:00pm 15.7 12.4 -0.1 34 6.7 S 7 7 4 4 1020.0 1019.2 0.0
24/09:30pm 16.8 13.8 1.7 36 6.8 S 7 9 4 5 1019.8 1019.0 0.0
24/09:00pm 17.1 14.0 1.5 35 7.0 S 7 7 4 4 1019.6 1018.8 0.0
24/08:00pm 19.3 15.8 1.3 30 8.2 SSE 9 13 5 7 1019.5 1018.7 0.0
24/07:30pm 20.7 17.8 1.6 28 8.8 ESE 6 9 3 5 1019.3 1018.5 0.0
24/07:00pm 22.0 18.9 1.6 26 9.5 ESE 7 9 4 5 1018.7 1018.0 0.0
24/06:30pm 24.2 21.5 2.4 24 10.5 E 6 9 3 5 1018.7 1018.0 0.0
24/06:00pm 25.5 22.2 2.2 22 11.3 ESE 9 13 5 7 1018.4 1017.7 0.0
24/05:30pm 26.9 23.2 2.1 20 12.1 E 11 15 6 8 1018.1 1017.4 0.0
24/05:00pm 27.1 23.8 2.2 20 12.2 SSE 9 15 5 8 1017.9 1017.2 0.0
24/04:30pm 27.4 23.2 1.8 19 12.5 SE 13 19 7 10 1017.8 1017.1 0.0
24/04:00pm 27.5 23.3 1.8 19 12.5 ESE 13 22 7 12 1017.8 1017.1 0.0
24/03:30pm 27.4 24.0 1.8 19 12.5 SE 9 15 5 8 1017.7 1017.0 0.0
24/03:00pm 27.1 22.9 1.5 19 12.4 ESE 13 20 7 11 1017.8 1017.1 0.0
24/02:30pm 26.4 21.3 0.9 19 12.2 ESE 17 28 9 15 1017.7 1017.0 0.0
24/02:00pm 26.0 20.6 1.3 20 11.8 ESE 19 26 10 14 1018.1 1017.4 0.0
24/01:30pm 26.0 21.1 2.0 21 11.6 ESE 17 26 9 14 1018.4 1017.7 0.0
24/01:00pm 25.2 19.6 1.3 21 11.4 E 20 30 11 16 1018.9 1018.2 0.0
24/12:30pm 24.9 19.1 2.4 23 10.9 ESE 22 32 12 17 1019.5 1018.7 0.0
24/12:00pm 24.6 18.5 2.7 24 10.6 ESE 24 35 13 19 1020.1 1019.3 0.0
24/11:30am 24.1 17.3 2.9 25 10.3 ESE 28 35 15 19 1020.3 1019.5 0.0
24/11:00am 24.0 17.7 3.9 27 9.9 ESE 26 35 14 19 1020.8 1020.1 0.0
24/10:30am 22.7 16.0 3.8 29 9.3 E 28 41 15 22 1021.1 1020.4 0.0
24/10:00am 21.8 15.5 3.9 31 8.7 E 26 35 14 19 1021.4 1020.7 0.0
24/09:30am 20.6 14.8 4.2 34 8.0 E 24 32 13 17 1021.1 1020.4 0.0
24/09:00am 19.5 13.2 4.0 36 7.4 ESE 26 35 14 19 1020.9 1020.2 0.0
24/08:30am 18.0 12.4 3.5 38 6.8 SE 22 28 12 15 1020.8 1020.1 0.0
24/08:00am 16.7 11.4 3.0 40 6.3 SE 20 28 11 15 1020.5 1019.8 0.0
24/07:30am 15.8 11.1 2.9 42 5.9 SE 17 22 9 12 1019.8 1019.0 0.0
24/07:00am 15.4 10.7 2.9 43 5.7 SE 17 20 9 11 1019.4 1018.6 0.0
24/06:30am 15.6 10.8 2.4 41 6.0 SE 17 26 9 14 1019.4 1018.6 0.0
24/06:00am 16.0 11.2 2.4 40 6.1 SE 17 24 9 13 1019.2 1018.4 0.0
24/05:30am 16.3 11.4 2.3 39 6.3 SE 17 24 9 13 1019.0 1018.3 0.0
24/05:00am 16.9 11.4 2.1 37 6.7 SE 20 28 11 15 1019.0 1018.3 0.0
24/04:30am 16.6 11.3 1.9 37 6.6 SE 19 24 10 13 1018.9 1018.2 0.0
24/04:00am 16.9 11.6 2.1 37 6.7 SE 19 26 10 14 1019.0 1018.3 0.0
24/03:30am 16.8 12.1 3.1 40 6.3 SSE 17 28 9 15 1019.2 1018.4 0.0
24/03:00am 12.2 7.6 -1.3 39 5.4 SSW 13 13 7 7 1019.6 1018.8 0.0
24/02:30am 12.3 7.3 -0.9 40 5.4 S 15 15 8 8 1019.6 1018.8 0.0
24/02:00am 12.2 7.5 -1.7 38 5.5 S 13 15 7 8 1019.9 1019.1 0.0
24/01:30am 12.6 7.9 -1.7 37 5.7 S 13 15 7 8 1019.8 1019.0 0.0
24/01:00am 13.0 8.7 -1.7 36 5.9 S 11 13 6 7 1020.0 1019.2 0.0
24/12:30am 13.4 9.5 -1.7 35 6.1 S 9 11 5 6 1020.2 1019.4 0.0
24/12:00am 14.0 9.8 -1.2 35 6.2 S 11 13 6 7 1020.3 1019.5 0.0
 
Date/Time
EST
Temp
°C
App
Temp
°C
Dew
Point
Rel
Hum
%
Delta-T
°C
Wind Press
QNH
hPa
Press
MSL
hPa
Rain
since 9 am
mm
Dir
 
Spd
km/h
Gust
km/h
Spd
kts
Gust
kts
23/11:30pm 14.4 10.1 -1.6 33 6.6 S 11 13 6 7 1020.4 1019.7 0.0
23/11:00pm 17.6 13.1 -0.6 29 7.8 SSE 13 17 7 9 1020.5 1019.8 0.0
23/10:30pm 18.1 13.2 -0.7 28 8.1 SE 15 17 8 9 1020.6 1019.9 0.0
23/10:00pm 19.0 14.1 -0.4 27 8.5 SE 15 20 8 11 1020.3 1019.5 0.0
23/09:30pm 18.4 13.8 -0.9 27 8.3 SE 13 15 7 8 1020.3 1019.5 0.0
23/09:00pm 17.6 13.7 -1.6 27 8.1 SE 9 11 5 6 1020.2 1019.4 0.0
23/08:30pm 17.7 14.1 -2.0 26 8.3 SE 7 9 4 5 1020.1 1019.3 0.0
23/08:00pm 18.8 14.7 -2.7 23 9.0 SSE 9 11 5 6 1019.9 1019.1 0.0
23/07:30pm 20.2 15.4 -2.2 22 9.6 SSE 13 15 7 8 1019.5 1018.7 0.0
23/07:00pm 20.9 16.1 -2.2 21 9.9 SSE 13 17 7 9 1019.2 1018.4 0.0
23/06:30pm 21.5 16.0 -2.4 20 10.3 SE 17 20 9 11 1018.9 1018.2 0.0
23/06:00pm 22.3 16.4 -2.4 19 10.7 SE 19 24 10 13 1018.8 1018.1 0.0
23/05:30pm 23.1 16.6 -2.5 18 11.2 SE 22 30 12 16 1018.4 1017.7 0.0
23/05:00pm 23.5 16.7 -2.2 18 11.3 SE 24 32 13 17 1018.3 1017.6 0.0
23/04:30pm 24.2 17.3 -2.4 17 11.7 SE 24 33 13 18 1018.3 1017.6 0.0
23/04:00pm 23.9 17.5 -1.8 18 11.4 SE 22 35 12 19 1018.3 1017.6 0.0
23/03:30pm 23.5 17.1 -1.4 19 11.1 SE 22 33 12 18 1018.5 1017.8 0.0
23/03:00pm 23.3 16.2 -0.9 20 10.9 SE 26 35 14 19 1018.6 1017.9 0.0
23/02:30pm 22.4 15.8 -0.3 22 10.3 SSE 24 35 13 19 1019.2 1018.4 0.0
23/02:00pm 22.6 15.8 1.0 24 10.0 SE 26 33 14 18 1019.6 1018.8 0.0
23/01:30pm 22.2 16.0 2.3 27 9.4 SE 24 37 13 20 1020.0 1019.2 0.0
23/01:00pm 21.2 14.7 2.5 29 8.8 SE 26 35 14 19 1020.7 1020.0 0.0
23/12:30pm 20.8 14.7 2.6 30 8.6 SSE 24 35 13 19 1021.3 1020.6 0.0
23/12:00pm 20.4 13.5 2.3 30 8.4 SE 28 39 15 21 1021.9 1021.2 0.0
23/11:30am 18.6 11.2 2.0 33 7.6 ESE 30 41 16 22 1022.4 1021.7 0.0
23/11:00am 18.5 11.3 2.8 35 7.3 SE 30 39 16 21 1022.9 1022.2 0.0
23/10:30am 17.8 10.1 2.5 36 7.0 SE 32 41 17 22 1023.3 1022.6 0.0
23/10:00am 16.7 9.1 2.7 39 6.4 SE 32 46 17 25 1023.6 1022.9 0.0
23/09:30am 16.4 8.8 3.8 43 5.9 SE 33 44 18 24 1023.5 1022.8 0.0
23/09:00am 15.7 7.8 4.1 46 5.4 SE 35 46 19 25 1023.3 1022.6 0.0
23/08:30am 14.8 7.4 3.9 48 5.0 SE 32 43 17 23 1022.9 1022.2 0.0
23/08:00am 14.2 7.9 3.7 49 4.8 SE 26 39 14 21 1022.8 1022.1 0.0
23/07:30am 13.6 7.6 3.4 50 4.6 SE 24 35 13 19 1022.5 1021.8 0.0
23/07:00am 13.7 7.7 3.5 50 4.6 SE 24 35 13 19 1022.2 1021.5 0.0
23/06:30am 13.8 7.7 3.0 48 4.9 SE 24 32 13 17 1022.0 1021.3 0.0
23/06:00am 14.1 8.0 2.7 46 5.1 SE 24 32 13 17 1021.8 1021.1 0.0
23/05:30am 12.8 8.7 2.4 49 4.6 SSE 13 17 7 9 1021.6 1020.9 0.0
23/05:00am 11.5 7.1 0.6 47 4.5 S 13 15 7 8 1021.5 1020.8 0.0
23/04:30am 11.5 7.0 0.0 45 4.7 S 13 15 7 8 1021.4 1020.7 0.0
23/04:00am 11.7 7.1 -0.8 42 5.1 S 13 15 7 8 1021.7 1021.0 0.0
23/03:30am 12.0 7.4 -1.2 40 5.3 SSW 13 17 7 9 1021.7 1021.0 0.0
23/03:00am 12.4 7.8 -1.1 39 5.5 S 13 17 7 9 1021.7 1021.0 0.0
23/02:30am 11.8 7.1 -2.0 38 5.5 S 13 15 7 8 1021.6 1020.9 0.0
23/02:00am 11.4 6.6 -2.8 37 5.5 S 13 15 7 8 1021.6 1020.9 0.0
23/01:30am 11.9 7.4 -3.1 35 5.8 S 11 13 6 7 1021.8 1021.1 0.0
23/01:00am 12.1 7.3 -2.9 35 5.8 S 13 13 7 7 1021.9 1021.2 0.0
23/12:30am 12.2 7.7 -3.2 34 5.9 S 11 13 6 7 1022.1 1021.4 0.0
23/12:00am 13.5 9.1 -2.8 32 6.4 S 11 11 6 6 1022.1 1021.4 0.0
 
Date/Time
EST
Temp
°C
App
Temp
°C
Dew
Point
Rel
Hum
%
Delta-T
°C
Wind Press
QNH
hPa
Press
MSL
hPa
Rain
since 9 am
mm
Dir
 
Spd
km/h
Gust
km/h
Spd
kts
Gust
kts
22/11:30pm 13.6 9.1 -3.2 31 6.6 SSE 11 13 6 7 1022.4 1021.7 0.0
22/11:00pm 14.2 9.4 -2.7 31 6.7 S 13 15 7 8 1022.7 1022.0 0.0
22/10:30pm 14.5 9.6 -3.3 29 7.0 S 13 15 7 8 1022.7 1022.0 0.0
22/10:00pm 15.5 10.3 -2.9 28 7.4 S 15 17 8 9 1022.9 1022.2 0.0
22/09:30pm 15.7 10.4 -3.7 26 7.7 S 15 17 8 9 1022.7 1022.0 0.0
22/09:00pm 16.7 11.4 -3.4 25 8.1 S 15 17 8 9 1022.6 1021.9 0.0
22/08:30pm 17.3 12.0 -3.4 24 8.4 S 15 19 8 10 1022.4 1021.7 0.0
22/08:00pm 18.9 13.6 -3.3 22 9.1 SSE 15 20 8 11 1022.1 1021.4 0.0
22/07:30pm 19.7 14.1 -3.2 21 9.5 SSE 17 24 9 13 1021.7 1021.0 0.0
22/07:00pm 20.0 15.1 -3.6 20 9.8 SSE 13 17 7 9 1021.3 1020.6 0.0
22/06:30pm 20.7 14.5 -4.4 18 10.3 SE 19 26 10 14 1020.8 1020.1 0.0
22/06:00pm 21.6 15.2 -4.5 17 10.8 SE 20 30 11 16 1020.6 1019.9 0.0
22/05:30pm 22.5 15.4 -4.5 16 11.3 SE 24 32 13 17 1020.5 1019.8 0.0
22/05:00pm 22.8 15.5 -6.1 14 11.7 SSE 24 32 13 17 1020.4 1019.7 0.0
22/04:30pm 23.2 16.2 -6.7 13 12.0 SSE 22 33 12 18 1020.3 1019.5 0.0
22/04:00pm 23.3 16.2 -4.8 15 11.7 SSE 24 56 13 30 1020.3 1019.5 0.0
22/03:51pm 23.5 16.3 -5.5 14 12.0 SSE 24 56 13 30 1020.2 1019.4 0.0
22/03:30pm 23.1 16.0 -4.1 16 11.5 SSE 24 35 13 19 1020.4 1019.7 0.0
22/03:00pm 23.2 16.1 -4.8 15 11.7 SE 24 41 13 22 1020.6 1019.9 0.0
22/02:30pm 22.9 15.8 -4.2 16 11.4 SSE 24 33 13 18 1020.9 1020.2 0.0
22/02:00pm 22.6 15.7 -2.9 18 10.9 SE 24 37 13 20 1021.2 1020.5 0.0
22/01:30pm 22.1 16.1 -1.2 21 10.3 SSE 20 32 11 17 1021.8 1021.1 0.0
22/01:00pm 21.8 15.1 -0.8 22 10.0 S 24 32 13 17 1022.5 1021.8 0.0
22/12:30pm 20.9 14.2 -1.0 23 9.6 SE 24 35 13 19 1023.0 1022.3 0.0
22/12:00pm 20.2 13.2 -0.4 25 9.1 SSE 26 33 14 18 1023.6 1022.9 0.0
22/11:30am 19.3 12.8 0.4 28 8.4 SSE 24 35 13 19 1024.0 1023.3 0.0

Other Formats:

Comma delimited format used in spreadsheet applications
http://www.bom.gov.au/fwo/IDQ60801/IDQ60801.94335.axf

JavaScript Object Notation format (JSON) in row-major order
http://www.bom.gov.au/fwo/IDQ60801/IDQ60801.94335.json